createdAt,value
2018-04-06T03:32:34.326Z,98.00
2018-04-06T03:35:08.888Z,98.10
2018-04-06T03:37:43.411Z,98.10
2018-04-06T03:40:17.988Z,98.10
2018-04-06T03:42:51.691Z,98.00
2018-04-06T03:45:25.436Z,98.10
2018-04-06T03:47:59.252Z,98.10
2018-04-06T03:50:33.028Z,98.00
2018-04-06T03:53:07.551Z,97.60
2018-04-06T03:55:42.234Z,97.70
2018-04-06T03:58:34.628Z,97.60
2018-04-06T04:01:08.446Z,97.90
2018-04-06T04:03:42.203Z,97.90
2018-04-06T04:06:15.993Z,97.90
2018-04-06T04:08:49.762Z,97.80
2018-04-06T04:11:23.534Z,98.00
2018-04-06T04:13:57.212Z,98.00
2018-04-06T04:16:31.308Z,98.20
2018-04-06T04:19:05.009Z,98.20
2018-04-06T04:21:39.902Z,98.10
2018-04-06T04:24:13.786Z,98.10
2018-04-06T04:26:47.472Z,98.20
2018-04-06T04:29:22.061Z,98.20
2018-04-06T04:31:56.210Z,98.20
2018-04-06T04:34:29.877Z,98.10
2018-04-06T04:37:03.647Z,98.10
2018-04-06T04:39:37.602Z,98.30
2018-04-06T04:42:11.393Z,98.30
2018-04-06T04:44:45.104Z,98.40
2018-04-06T04:47:20.479Z,98.30
2018-04-06T04:49:55.049Z,98.20
2018-04-06T04:52:28.858Z,98.10
2018-04-06T04:55:02.733Z,98.30
2018-04-06T04:57:37.327Z,98.20
2018-04-06T05:00:11.924Z,98.40
2018-04-06T05:02:46.554Z,98.10
2018-04-06T05:05:21.067Z,98.20
2018-04-06T05:07:54.885Z,98.20
2018-04-06T05:10:28.744Z,98.30
2018-04-06T05:13:02.796Z,98.30
2018-04-06T05:15:36.448Z,98.40
2018-04-06T05:18:11.927Z,98.20
2018-04-06T05:20:45.955Z,98.10
2018-04-06T05:23:19.634Z,98.10
2018-04-06T05:25:53.617Z,98.30
2018-04-06T05:28:27.395Z,98.30
2018-04-06T05:31:01.202Z,98.20
2018-04-06T05:33:35.913Z,98.30
2018-04-06T05:36:09.925Z,98.30
2018-04-06T05:38:43.621Z,98.30
2018-04-06T05:41:18.014Z,98.40
2018-04-06T05:43:52.565Z,98.20
2018-04-06T05:46:27.425Z,98.00
2018-04-06T05:49:01.158Z,98.00
2018-04-06T05:51:38.177Z,98.10
2018-04-06T05:54:12.076Z,98.00
2018-04-06T05:56:46.284Z,98.10
2018-04-06T05:59:19.932Z,98.20
2018-04-06T06:01:53.776Z,98.10
2018-04-06T06:04:27.553Z,98.10
2018-04-06T06:07:02.072Z,98.00
2018-04-06T06:09:36.698Z,97.80
2018-04-06T06:12:10.440Z,97.80
2018-04-06T06:14:44.247Z,97.80
2018-04-06T06:17:18.866Z,97.60
2018-04-06T06:19:52.700Z,97.60
2018-04-06T06:22:26.572Z,97.40
2018-04-06T06:25:00.240Z,97.10
2018-04-06T06:27:33.992Z,96.60
2018-04-06T06:30:07.711Z,96.40
2018-04-06T06:32:42.177Z,95.80
2018-04-06T06:35:16.049Z,95.80
2018-04-06T06:37:50.247Z,95.60
2018-04-06T06:40:23.996Z,95.40
2018-04-06T06:42:57.791Z,94.70
2018-04-06T06:45:31.560Z,94.60
2018-04-06T06:48:05.362Z,94.60
2018-04-06T06:50:39.142Z,94.50
2018-04-06T06:53:12.919Z,94.10
2018-04-06T06:55:46.692Z,94.00
2018-04-06T06:58:20.592Z,93.90
2018-04-06T07:00:54.338Z,93.90
2018-04-06T07:03:28.022Z,93.20
2018-04-06T07:06:02.625Z,93.20
2018-04-06T07:08:37.506Z,92.60
2018-04-06T07:11:11.667Z,92.60
2018-04-06T07:13:45.445Z,92.70
2018-04-06T07:16:19.312Z,92.20
2018-04-06T07:18:53.065Z,91.70
2018-04-06T07:21:26.817Z,91.20
2018-04-06T07:24:00.690Z,90.50
2018-04-06T07:26:37.314Z,90.20
2018-04-06T07:29:11.776Z,89.50
2018-04-06T07:31:45.569Z,89.50
2018-04-06T07:34:22.343Z,88.80
2018-04-06T07:36:58.196Z,88.30
2018-04-06T07:39:32.677Z,86.80
2018-04-06T07:42:07.442Z,85.70
2018-04-06T07:44:42.572Z,85.60
2018-04-06T07:47:16.425Z,85.00
2018-04-06T07:49:50.492Z,85.00
2018-04-06T07:52:24.251Z,82.70
2018-04-06T07:54:58.955Z,81.70
2018-04-06T07:57:33.616Z,80.60
2018-04-06T08:00:09.093Z,79.30
2018-04-06T08:02:43.376Z,79.20
2018-04-06T08:05:17.089Z,77.50
2018-04-06T08:07:50.901Z,77.50
2018-04-06T08:10:24.724Z,76.00
2018-04-06T08:12:58.427Z,75.90
2018-04-06T08:15:33.017Z,74.90
2018-04-06T08:18:06.768Z,74.80
2018-04-06T08:20:41.415Z,72.80
2018-04-06T08:23:16.008Z,70.20
2018-04-06T08:25:49.721Z,70.20
2018-04-06T08:28:23.512Z,70.10
2018-04-06T08:30:57.381Z,69.60
2018-04-06T08:33:32.059Z,68.90
2018-04-06T08:36:05.869Z,68.70
2018-04-06T08:38:40.543Z,67.00
2018-04-06T08:41:14.288Z,59.40
2018-04-06T08:43:49.026Z,53.30
2018-04-06T08:46:22.939Z,53.20
2018-04-06T08:48:56.714Z,52.10
2018-04-06T08:51:30.450Z,49.60
2018-04-06T08:54:04.551Z,48.50
2018-04-06T08:56:38.316Z,49.10
2018-04-06T08:59:12.976Z,49.20
2018-04-06T09:01:47.537Z,49.90
2018-04-06T09:04:21.347Z,49.90
2018-04-06T09:06:55.253Z,47.90
2018-04-06T09:09:28.996Z,47.50
2018-04-06T09:12:02.797Z,46.20
2018-04-06T09:14:37.069Z,45.50
2018-04-06T09:17:11.541Z,44.70
2018-04-06T09:19:45.278Z,44.70
2018-04-06T09:22:19.180Z,43.90
2018-04-06T09:24:53.016Z,45.50
2018-04-06T09:27:27.626Z,42.40
2018-04-06T09:30:01.293Z,42.40
2018-04-06T09:32:35.077Z,41.30
2018-04-06T09:35:08.860Z,43.10
2018-04-06T09:37:42.531Z,43.10
2018-04-06T09:40:16.267Z,42.20
2018-04-06T09:42:50.033Z,42.50
2018-04-06T09:45:23.868Z,43.10
2018-04-06T09:47:57.670Z,40.90
2018-04-06T09:50:31.764Z,41.30
2018-04-06T09:53:05.514Z,41.70
2018-04-06T09:55:39.278Z,40.60
2018-04-06T09:58:13.068Z,40.80
2018-04-06T10:00:46.938Z,40.50
2018-04-06T10:03:21.956Z,37.50
2018-04-06T10:05:55.710Z,37.50
2018-04-06T10:08:29.555Z,38.90
2018-04-06T10:11:03.333Z,38.30
2018-04-06T10:13:37.749Z,38.50
2018-04-06T10:16:11.628Z,39.50
2018-04-06T10:18:46.300Z,39.50
2018-04-06T10:21:20.895Z,37.70
2018-04-06T10:23:55.644Z,37.70
2018-04-06T10:26:29.440Z,38.40
2018-04-06T10:29:03.730Z,38.30
2018-04-06T10:31:37.455Z,38.60
2018-04-06T10:34:11.144Z,38.80
2018-04-06T10:36:45.481Z,37.60
2018-04-06T10:39:19.936Z,37.80
2018-04-06T10:41:53.821Z,37.80
2018-04-06T10:44:28.344Z,38.70
2018-04-06T10:47:02.168Z,38.70
2018-04-06T10:49:35.922Z,37.20
2018-04-06T10:52:09.688Z,38.70
2018-04-06T10:54:43.724Z,39.00
2018-04-06T10:57:17.399Z,38.90
2018-04-06T10:59:52.069Z,39.30
2018-04-06T11:02:26.709Z,38.70
2018-04-06T11:05:00.581Z,38.70
2018-04-06T11:07:34.383Z,37.10
2018-04-06T11:10:08.426Z,37.30
2018-04-06T11:12:42.980Z,39.20
2018-04-06T11:15:16.766Z,39.20
2018-04-06T11:17:50.624Z,39.00
2018-04-06T11:20:25.108Z,37.20
2018-04-06T11:22:59.018Z,37.20
2018-04-06T11:25:33.472Z,38.00
2018-04-06T11:28:08.193Z,37.70
2018-04-06T11:30:41.914Z,37.60
2018-04-06T11:33:15.643Z,34.50
2018-04-06T11:35:49.416Z,36.00
2018-04-06T11:38:23.306Z,36.60
2018-04-06T11:41:04.958Z,37.90
2018-04-06T11:43:38.667Z,38.00
2018-04-06T11:46:12.496Z,39.30
2018-04-06T11:48:47.136Z,39.30
2018-04-06T11:51:20.839Z,39.20
2018-04-06T11:53:54.720Z,40.50
2018-04-06T11:56:29.348Z,41.40
2018-04-06T11:59:03.060Z,41.00
2018-04-06T12:01:37.359Z,41.20
2018-04-06T12:04:11.495Z,42.10
2018-04-06T12:06:45.198Z,41.90
2018-04-06T12:09:20.546Z,42.50
2018-04-06T12:11:55.141Z,42.80
2018-04-06T12:14:29.009Z,42.80
2018-04-06T12:17:02.795Z,42.90
2018-04-06T12:19:36.579Z,43.60
2018-04-06T12:22:10.421Z,43.80
2018-04-06T12:24:46.916Z,43.00
2018-04-06T12:27:21.260Z,43.40
2018-04-06T12:29:55.098Z,43.50
2018-04-06T12:32:28.896Z,43.60
2018-04-06T12:35:02.861Z,43.50
2018-04-06T12:37:36.613Z,43.50
2018-04-06T12:40:10.674Z,43.20
2018-04-06T12:42:46.946Z,42.90
2018-04-06T12:45:21.661Z,43.80
2018-04-06T12:47:56.206Z,44.40
2018-04-06T12:50:29.982Z,44.40
2018-04-06T12:53:04.534Z,42.80
2018-04-06T12:55:38.352Z,42.70
2018-04-06T12:58:12.156Z,43.40
2018-04-06T13:00:45.896Z,43.40
2018-04-06T13:03:20.486Z,45.40
2018-04-06T13:05:54.330Z,44.80
2018-04-06T13:08:28.120Z,44.60
2018-04-06T13:11:01.986Z,44.20
2018-04-06T13:13:36.439Z,44.30
2018-04-06T13:16:10.128Z,44.30
2018-04-06T13:18:43.965Z,43.90
2018-04-06T13:21:19.380Z,43.40
2018-04-06T13:23:53.090Z,43.50
2018-04-06T13:26:26.932Z,43.50
2018-04-06T13:29:01.533Z,43.60
2018-04-06T13:31:39.150Z,44.70
2018-04-06T13:34:12.952Z,44.70
2018-04-06T13:36:46.829Z,43.90
2018-04-06T13:39:20.607Z,44.10
2018-04-06T13:41:54.269Z,44.10
2018-04-06T13:44:28.092Z,43.60
2018-04-06T13:47:02.933Z,44.40
2018-04-06T13:49:36.900Z,44.40
2018-04-06T13:52:10.744Z,44.90
2018-04-06T13:54:44.460Z,44.30
2018-04-06T13:57:19.196Z,44.30
2018-04-06T13:59:52.836Z,44.90
2018-04-06T14:02:26.641Z,45.00
2018-04-06T14:05:00.454Z,44.40
2018-04-06T14:07:35.812Z,45.20
2018-04-06T14:10:09.676Z,45.10
2018-04-06T14:12:44.303Z,44.40
2018-04-06T14:15:18.130Z,44.40
2018-04-06T14:17:52.737Z,44.40
2018-04-06T14:20:26.436Z,44.30
2018-04-06T14:23:00.562Z,44.30
2018-04-06T14:25:34.399Z,44.30
2018-04-06T14:28:09.028Z,44.70
2018-04-06T14:30:42.782Z,44.60
2018-04-06T14:33:17.304Z,43.80
2018-04-06T14:35:53.269Z,43.60
2018-04-06T14:38:28.320Z,43.60
2018-04-06T14:41:02.025Z,43.40
2018-04-06T14:43:38.198Z,42.80
2018-04-06T14:46:12.008Z,42.30
2018-04-06T14:48:45.718Z,41.60
2018-04-06T14:51:20.135Z,42.10
2018-04-06T14:53:54.380Z,42.10
2018-04-06T14:56:29.553Z,41.90
2018-04-06T14:59:03.628Z,41.80
2018-04-06T15:01:37.404Z,41.50
2018-04-06T15:04:11.169Z,40.60
2018-04-06T15:06:44.948Z,41.10
2018-04-06T15:09:18.593Z,41.00
2018-04-06T15:11:52.463Z,40.90
2018-04-06T15:14:26.354Z,41.00
2018-04-06T15:17:00.145Z,40.80
2018-04-06T15:19:34.017Z,40.80
2018-04-06T15:22:07.943Z,41.20
2018-04-06T15:24:41.681Z,41.10
2018-04-06T15:27:15.576Z,41.20
2018-04-06T15:29:49.404Z,39.70
2018-04-06T15:32:23.167Z,40.20
2018-04-06T15:34:56.904Z,41.10
2018-04-06T15:37:30.633Z,41.50
2018-04-06T15:40:04.509Z,41.30
2018-04-06T15:42:39.056Z,40.90
2018-04-06T15:45:13.640Z,41.60
2018-04-06T15:47:48.270Z,41.20
2018-04-06T15:50:22.780Z,41.40
2018-04-06T15:52:56.489Z,41.40
2018-04-06T15:55:31.064Z,41.70
2018-04-06T15:58:04.780Z,41.60
2018-04-06T16:00:38.683Z,41.70
2018-04-06T16:03:12.294Z,41.50
2018-04-06T16:05:46.052Z,41.40
2018-04-06T16:08:19.875Z,41.80
2018-04-06T16:10:54.444Z,42.10
2018-04-06T16:13:29.092Z,42.30
2018-04-06T16:16:02.824Z,42.30
2018-04-06T16:18:36.630Z,42.70
2018-04-06T16:21:11.317Z,43.40
2018-04-06T16:23:45.055Z,43.40
2018-04-06T16:26:19.151Z,43.00
2018-04-06T16:28:52.863Z,43.00
2018-04-06T16:31:26.524Z,43.20
2018-04-06T16:34:00.540Z,42.90
2018-04-06T16:36:34.288Z,43.00
2018-04-06T16:39:08.074Z,43.00
2018-04-06T16:41:41.882Z,43.20
2018-04-06T16:44:15.647Z,43.40
2018-04-06T16:46:49.460Z,43.40
2018-04-06T16:49:23.198Z,43.60
2018-04-06T16:51:57.475Z,44.00
2018-04-06T16:54:31.444Z,44.30
2018-04-06T16:57:05.191Z,44.50
2018-04-06T16:59:39.989Z,44.90
2018-04-06T17:02:13.735Z,45.10
2018-04-06T17:04:49.014Z,45.40
2018-04-06T17:07:23.559Z,45.60
2018-04-06T17:09:57.340Z,45.50
2018-04-06T17:12:31.232Z,45.90
2018-04-06T17:15:05.098Z,46.00
2018-04-06T17:17:38.741Z,46.20
2018-04-06T17:20:12.587Z,46.20
2018-04-06T17:22:46.373Z,46.70
2018-04-06T17:25:20.469Z,46.80
2018-04-06T17:27:55.120Z,47.20
2018-04-06T17:30:29.079Z,47.70
2018-04-06T17:33:02.700Z,47.90
2018-04-06T17:35:37.337Z,48.60
2018-04-06T17:38:11.047Z,48.60
2018-04-06T17:40:45.792Z,48.70
2018-04-06T17:43:19.602Z,48.70
2018-04-06T17:45:53.423Z,49.00
2018-04-06T17:48:28.005Z,49.60
2018-04-06T17:51:01.719Z,49.60
2018-04-06T17:53:36.213Z,49.90
2018-04-06T17:56:10.342Z,49.90
2018-04-06T17:58:44.743Z,50.70
2018-04-06T18:01:18.543Z,50.60
2018-04-06T18:03:53.067Z,51.30
2018-04-06T18:06:27.721Z,51.20
2018-04-06T18:09:02.323Z,51.40
2018-04-06T18:11:36.030Z,51.30
2018-04-06T18:14:12.918Z,52.20
2018-04-06T18:16:50.479Z,52.90
2018-04-06T18:19:24.122Z,52.90
2018-04-06T18:21:57.965Z,52.40
2018-04-06T18:24:32.779Z,52.90
2018-04-06T18:27:06.526Z,52.80
2018-04-06T18:29:40.319Z,53.00
2018-04-06T18:32:14.156Z,53.00
2018-04-06T18:34:48.013Z,53.10
2018-04-06T18:37:21.808Z,53.20
2018-04-06T18:39:56.615Z,54.00
2018-04-06T18:42:30.728Z,53.90
2018-04-06T18:45:04.638Z,54.00
2018-04-06T18:47:38.439Z,54.30
2018-04-06T18:50:12.287Z,54.70
2018-04-06T18:52:46.856Z,54.90
2018-04-06T18:55:20.534Z,55.10
2018-04-06T18:57:54.323Z,55.20
2018-04-06T19:00:28.138Z,55.20
2018-04-06T19:03:01.905Z,55.20
2018-04-06T19:05:35.778Z,55.30
2018-04-06T19:08:09.569Z,55.70
2018-04-06T19:10:43.468Z,55.40
2018-04-06T19:13:18.015Z,56.00
2018-04-06T19:15:53.092Z,56.60
2018-04-06T19:18:26.837Z,56.60
2018-04-06T19:21:00.676Z,57.30
2018-04-06T19:23:34.456Z,57.20
2018-04-06T19:26:08.320Z,57.30
2018-04-06T19:28:42.913Z,58.00
2018-04-06T19:31:17.368Z,58.10
2018-04-06T19:33:52.039Z,58.20
2018-04-06T19:36:25.895Z,58.10
2018-04-06T19:38:59.653Z,58.50
2018-04-06T19:41:34.818Z,58.80
2018-04-06T19:44:08.621Z,59.30
2018-04-06T19:46:43.150Z,59.70
2018-04-06T19:49:16.952Z,59.10
2018-04-06T19:51:51.584Z,59.40
2018-04-06T19:54:25.481Z,59.70
2018-04-06T19:56:59.711Z,60.30
2018-04-06T19:59:33.407Z,60.60
2018-04-06T20:02:08.792Z,60.40
2018-04-06T20:04:42.673Z,60.40
2018-04-06T20:07:16.393Z,60.80
2018-04-06T20:09:50.161Z,59.70
2018-04-06T20:12:23.908Z,59.90
2018-04-06T20:14:58.543Z,59.80
2018-04-06T20:17:33.026Z,59.80
2018-04-06T20:20:07.623Z,60.10
2018-04-06T20:22:41.420Z,60.10
2018-04-06T20:25:15.228Z,59.90
2018-04-06T20:27:49.118Z,59.90
2018-04-06T20:30:22.894Z,60.50
2018-04-06T20:32:58.224Z,60.90
2018-04-06T20:35:32.414Z,60.90
2018-04-06T20:38:06.176Z,61.40
2018-04-06T20:40:39.969Z,61.40
2018-04-06T20:43:14.443Z,62.90
2018-04-06T20:45:48.888Z,62.00
2018-04-06T20:48:23.026Z,62.00
2018-04-06T20:50:56.741Z,62.40
2018-04-06T20:53:31.514Z,62.20
2018-04-06T20:56:05.200Z,62.80
2018-04-06T20:58:39.952Z,62.90
